Time;durP1;ratioP1;P1;durP2;ratioP2;P2;SDS_P1;SDS_P2;PMS_P1;PMS_P2;Temp;Humidity;BMP_temperature;BMP_pressure;BME280_temperature;BME280_humidity;BME280_pressure;Samples;Min_cycle;Max_cycle;Signal;HPM_P1;HPM_P2
2023/08/07 00:01:47;;;;;;;6.30;2.92;;;;;;;16.25;100.00;100399.53;6255526;28;20049;-76
2023/08/07 00:04:48;;;;;;;4.90;3.13;;;;;;;16.28;100.00;100395.78;6254814;28;20454;-74
2023/08/07 00:07:51;;;;;;;9.20;3.20;;;;;;;16.24;100.00;100397.84;6255417;28;20057;-75
2023/08/07 00:10:52;;;;;;;4.78;2.67;;;;;;;16.27;100.00;100392.31;6254991;28;20053;-76
2023/08/07 00:13:54;;;;;;;9.27;3.33;;;;;;;16.25;100.00;100391.56;6254802;28;20054;-76
2023/08/07 00:16:55;;;;;;;8.45;3.03;;;;;;;16.26;100.00;100389.75;6254954;28;20128;-76
2023/08/07 00:19:56;;;;;;;6.70;3.08;;;;;;;16.28;100.00;100391.31;6255026;28;20045;-76
2023/08/07 00:22:59;;;;;;;7.13;2.72;;;;;;;16.27;100.00;100394.13;6254640;28;20045;-76
2023/08/07 00:26:00;;;;;;;3.95;2.95;;;;;;;16.18;100.00;100395.72;6254520;28;20057;-77
2023/08/07 00:29:02;;;;;;;6.43;3.45;;;;;;;16.12;100.00;100396.19;6254695;28;20444;-76
2023/08/07 00:32:04;;;;;;;5.97;3.33;;;;;;;16.12;100.00;100394.38;6254745;28;20056;-73
2023/08/07 00:35:08;;;;;;;6.10;3.20;;;;;;;16.06;100.00;100397.56;6254537;28;20053;-76
2023/08/07 00:38:10;;;;;;;8.18;3.42;;;;;;;16.12;100.00;100391.72;6254266;28;20060;-76
2023/08/07 00:41:12;;;;;;;11.43;3.50;;;;;;;16.07;100.00;100396.56;6254386;28;20056;-74
2023/08/07 00:44:13;;;;;;;4.57;2.85;;;;;;;16.11;100.00;100390.06;6254054;28;20056;-76
2023/08/07 00:47:15;;;;;;;5.47;3.35;;;;;;;16.14;100.00;100392.47;6219103;22;20051;-81
2023/08/07 00:50:16;;;;;;;6.57;3.00;;;;;;;16.13;100.00;100396.09;6187040;28;20054;-81
2023/08/07 00:53:19;;;;;;;4.80;3.00;;;;;;;16.16;100.00;100392.31;6204955;28;20061;-81
2023/08/07 00:56:21;;;;;;;8.77;3.35;;;;;;;16.13;100.00;100401.41;6195824;28;20042;-81
2023/08/07 00:59:22;;;;;;;4.85;2.95;;;;;;;15.98;100.00;100402.63;6205318;28;20043;-83
2023/08/07 01:02:24;;;;;;;6.07;3.33;;;;;;;15.90;100.00;100391.84;6204803;28;20058;-80
2023/08/07 01:05:26;;;;;;;4.60;2.95;;;;;;;15.85;100.00;100396.63;6214956;28;20053;-80
2023/08/07 01:08:29;;;;;;;5.35;3.33;;;;;;;15.76;100.00;100392.94;6216415;28;20128;-79
2023/08/07 01:11:37;;;;;;;7.20;3.15;;;;;;;15.71;100.00;100393.31;6216715;28;20351;-80
2023/08/07 01:14:47;;;;;;;3.70;2.63;;;;;;;15.69;100.00;100391.75;6226746;28;20050;-81
2023/08/07 01:17:50;;;;;;;5.70;3.55;;;;;;;15.71;100.00;100389.81;6228915;28;20045;-81
2023/08/07 01:20:52;;;;;;;5.57;3.30;;;;;;;15.69;100.00;100394.41;6228851;28;20050;-80
2023/08/07 01:23:55;;;;;;;6.75;4.00;;;;;;;15.65;100.00;100387.66;6228848;28;20462;-80
2023/08/07 01:26:59;;;;;;;5.95;3.58;;;;;;;15.64;100.00;100392.13;6228677;28;20832;-79
2023/08/07 01:30:12;;;;;;;4.82;2.92;;;;;;;15.57;100.00;100390.88;6227828;28;20054;-80
2023/08/07 01:33:24;;;;;;;5.85;2.67;;;;;;;15.55;100.00;100391.97;6223077;28;20057;-80
2023/08/07 01:36:29;;;;;;;5.30;3.08;;;;;;;15.50;100.00;100394.16;6228586;28;20061;-80
2023/08/07 01:39:32;;;;;;;3.88;2.70;;;;;;;15.48;100.00;100389.81;6220147;28;20434;-81
2023/08/07 01:42:34;;;;;;;5.32;2.92;;;;;;;15.48;100.00;100384.50;6228398;28;20046;-80
2023/08/07 01:45:36;;;;;;;4.97;3.13;;;;;;;15.52;100.00;100387.75;6227973;28;20046;-81
2023/08/07 01:48:37;;;;;;;5.13;3.25;;;;;;;15.41;100.00;100393.09;6228547;28;20046;-82
2023/08/07 01:51:39;;;;;;;3.78;2.63;;;;;;;15.46;100.00;100390.91;6228170;28;20050;-81
2023/08/07 01:54:41;;;;;;;7.57;2.95;;;;;;;15.48;100.00;100376.56;6226244;28;20061;-80
2023/08/07 01:57:43;;;;;;;4.95;2.90;;;;;;;15.47;100.00;100385.47;6203846;28;20049;-81
2023/08/07 02:00:44;;;;;;;6.25;3.03;;;;;;;15.43;100.00;100375.25;6222120;28;20049;-81
2023/08/07 02:03:45;;;;;;;5.63;3.25;;;;;;;15.33;100.00;100384.91;6220552;28;20047;-81
2023/08/07 02:06:47;;;;;;;6.68;3.88;;;;;;;15.31;100.00;100390.31;6203615;28;20057;-80
2023/08/07 02:09:50;;;;;;;5.63;4.07;;;;;;;15.31;100.00;100394.78;6219326;28;20450;-81
2023/08/07 02:12:51;;;;;;;7.63;4.43;;;;;;;15.27;100.00;100383.59;6219419;28;20050;-80
2023/08/07 02:15:52;;;;;;;9.57;5.22;;;;;;;15.26;100.00;100381.03;6227326;28;20050;-81
2023/08/07 02:18:54;;;;;;;9.00;4.97;;;;;;;15.23;100.00;100382.97;6227622;28;20065;-80
2023/08/07 02:21:55;;;;;;;11.57;5.22;;;;;;;15.21;100.00;100379.63;6227420;28;20058;-81
2023/08/07 02:24:58;;;;;;;10.20;4.97;;;;;;;15.25;100.00;100380.19;6218918;28;20051;-81
2023/08/07 02:27:59;;;;;;;8.45;4.90;;;;;;;15.18;100.00;100379.00;6210512;28;20053;-80
2023/08/07 02:31:01;;;;;;;8.52;5.18;;;;;;;15.20;100.00;100385.84;6202321;28;20050;-80
2023/08/07 02:34:02;;;;;;;6.97;4.60;;;;;;;15.18;100.00;100400.19;6202676;28;20046;-80
2023/08/07 02:37:04;;;;;;;8.32;4.72;;;;;;;15.19;100.00;100391.28;6202893;28;20443;-81
2023/08/07 02:40:08;;;;;;;9.48;4.90;;;;;;;15.25;100.00;100401.38;6202713;28;20046;-80
2023/08/07 02:43:09;;;;;;;9.18;5.13;;;;;;;15.27;100.00;100401.28;6212410;28;20362;-81
2023/08/07 02:46:11;;;;;;;7.13;4.78;;;;;;;15.22;100.00;100391.03;6220692;28;20049;-81
2023/08/07 02:49:12;;;;;;;8.52;4.38;;;;;;;15.20;100.00;100398.25;6226847;28;20454;-80
2023/08/07 02:52:13;;;;;;;6.20;4.20;;;;;;;15.27;100.00;100388.88;6226879;28;20053;-80
2023/08/07 02:55:16;;;;;;;9.95;4.45;;;;;;;15.21;100.00;100390.22;6223221;28;20371;-82
2023/08/07 02:58:18;;;;;;;7.47;4.60;;;;;;;15.13;100.00;100397.06;6202445;28;20047;-85
2023/08/07 03:01:20;;;;;;;8.02;4.40;;;;;;;15.17;100.00;100393.19;6202250;28;20057;-80
2023/08/07 03:04:22;;;;;;;11.50;4.63;;;;;;;15.15;100.00;100397.78;6202163;28;20427;-82
2023/08/07 03:07:23;;;;;;;11.77;5.15;;;;;;;15.15;100.00;100403.91;6216798;28;20046;-79
2023/08/07 03:10:26;;;;;;;5.78;4.00;;;;;;;15.17;100.00;100401.13;6226557;28;20052;-79
2023/08/07 03:13:27;;;;;;;9.95;3.97;;;;;;;15.18;100.00;100400.19;6217271;28;20076;-80
2023/08/07 03:16:29;;;;;;;7.97;3.72;;;;;;;15.17;100.00;100406.41;6221121;28;20050;-80
2023/08/07 03:19:30;;;;;;;5.93;4.13;;;;;;;15.17;100.00;100406.41;6222907;28;20079;-80
2023/08/07 03:22:32;;;;;;;6.03;3.83;;;;;;;15.21;100.00;100400.78;6226064;28;20572;-82
2023/08/07 03:25:35;;;;;;;7.72;3.90;;;;;;;15.18;100.00;100405.47;6226274;28;20050;-75
2023/08/07 03:28:37;;;;;;;9.50;5.20;;;;;;;15.11;100.00;100410.41;6226110;28;20157;-73
2023/08/07 03:31:39;;;;;;;8.48;4.13;;;;;;;15.13;100.00;100411.13;6218024;28;20187;-74
2023/08/07 03:34:40;;;;;;;7.78;4.28;;;;;;;15.07;100.00;100403.66;6226062;28;20054;-74
2023/08/07 03:37:42;;;;;;;7.82;4.28;;;;;;;15.08;100.00;100405.34;6226036;28;20055;-74
2023/08/07 03:40:44;;;;;;;8.73;4.25;;;;;;;15.04;100.00;100400.44;6226028;28;20511;-74
2023/08/07 03:43:46;;;;;;;10.80;4.88;;;;;;;15.01;100.00;100409.44;6225959;28;20054;-73
2023/08/07 03:46:47;;;;;;;5.53;3.97;;;;;;;15.05;100.00;100400.28;6225547;28;20061;-74
2023/08/07 03:49:48;;;;;;;8.77;4.38;;;;;;;15.08;100.00;100412.44;6225836;28;20050;-74
2023/08/07 03:52:50;;;;;;;7.68;4.32;;;;;;;15.07;100.00;100416.88;6225850;28;20062;-74
2023/08/07 03:55:53;;;;;;;9.10;4.65;;;;;;;15.04;100.00;100417.13;6219910;28;20077;-73
2023/08/07 03:58:54;;;;;;;10.10;4.60;;;;;;;15.02;100.00;100411.09;6214478;28;20045;-74
2023/08/07 04:01:56;;;;;;;11.35;4.63;;;;;;;15.01;100.00;100413.88;6214243;28;20057;-74
2023/08/07 04:04:57;;;;;;;7.70;4.70;;;;;;;15.02;100.00;100413.75;6213902;28;20046;-74
2023/08/07 04:07:59;;;;;;;9.32;4.78;;;;;;;15.01;100.00;100416.53;6214633;28;20045;-74
2023/08/07 04:11:03;;;;;;;6.50;3.53;;;;;;;15.01;100.00;100411.25;6225601;28;20434;-74
2023/08/07 04:14:05;;;;;;;7.07;4.63;;;;;;;15.04;100.00;100413.66;6225695;28;20385;-81
2023/08/07 04:17:07;;;;;;;8.10;4.30;;;;;;;15.02;100.00;100412.91;6225695;28;20050;-81
2023/08/07 04:20:09;;;;;;;6.57;4.60;;;;;;;14.97;100.00;100415.91;6225525;28;20049;-80
2023/08/07 04:23:11;;;;;;;8.15;4.85;;;;;;;15.03;100.00;100407.50;6226719;28;20128;-81
2023/08/07 04:26:14;;;;;;;8.80;4.50;;;;;;;14.98;100.00;100417.59;6230045;28;20050;-80
2023/08/07 04:29:16;;;;;;;7.38;4.15;;;;;;;14.96;100.00;100417.72;6230278;28;20104;-80
2023/08/07 04:32:17;;;;;;;6.07;4.13;;;;;;;14.99;100.00;100421.94;6227137;28;20054;-81
2023/08/07 04:35:18;;;;;;;6.10;3.47;;;;;;;15.02;100.00;100423.50;6224019;28;20060;-80
2023/08/07 04:38:20;;;;;;;6.82;3.65;;;;;;;14.97;100.00;100424.69;6229813;28;20057;-80
2023/08/07 04:41:23;;;;;;;6.47;4.28;;;;;;;15.06;100.00;100435.53;6220939;28;20059;-80
2023/08/07 04:44:24;;;;;;;10.75;3.92;;;;;;;15.06;100.00;100431.09;6217873;28;20172;-81
2023/08/07 04:47:26;;;;;;;10.32;4.22;;;;;;;15.05;100.00;100433.84;6216053;28;20042;-81
2023/08/07 04:50:28;;;;;;;8.77;4.13;;;;;;;15.04;100.00;100433.03;6219838;28;20139;-80
2023/08/07 04:53:29;;;;;;;4.65;3.03;;;;;;;15.05;100.00;100431.22;6229237;28;20061;-80
2023/08/07 04:56:32;;;;;;;7.03;3.78;;;;;;;15.02;100.00;100431.44;6229390;28;20046;-79
2023/08/07 04:59:35;;;;;;;6.97;3.90;;;;;;;14.98;100.00;100434.31;6229292;28;20046;-81
2023/08/07 05:02:37;;;;;;;7.70;3.67;;;;;;;15.01;100.00;100435.06;6221533;28;20042;-80
2023/08/07 05:05:38;;;;;;;5.00;3.28;;;;;;;15.02;100.00;100447.31;6219570;28;20434;-80
2023/08/07 05:08:39;;;;;;;10.93;3.55;;;;;;;15.02;100.00;100442.88;6220062;28;20053;-78
2023/08/07 05:11:42;;;;;;;8.00;3.25;;;;;;;15.00;100.00;100452.75;6222836;28;20050;-81
2023/08/07 05:14:44;;;;;;;4.55;3.03;;;;;;;14.98;100.00;100450.19;6220410;28;20336;-80
2023/08/07 05:17:45;;;;;;;6.07;3.95;;;;;;;14.98;100.00;100452.84;6228979;28;20065;-81
2023/08/07 05:20:47;;;;;;;6.55;3.25;;;;;;;14.95;100.00;100454.91;6228602;28;20355;-79
2023/08/07 05:23:52;;;;;;;5.80;3.33;;;;;;;14.98;100.00;100460.78;6228353;28;20475;-80
2023/08/07 05:26:55;;;;;;;6.10;2.70;;;;;;;14.97;100.00;100461.75;6220404;28;20172;-81
2023/08/07 05:29:57;;;;;;;10.18;3.00;;;;;;;15.00;100.00;100452.75;6228845;28;20046;-81
2023/08/07 05:32:58;;;;;;;4.57;3.00;;;;;;;14.97;100.00;100461.75;6220140;28;20366;-81
2023/08/07 05:36:00;;;;;;;5.25;3.05;;;;;;;14.90;100.00;100462.34;6203294;28;20050;-82
2023/08/07 05:39:01;;;;;;;5.68;2.72;;;;;;;14.99;100.00;100464.28;6204176;28;20050;-81
2023/08/07 05:42:04;;;;;;;3.00;2.42;;;;;;;15.04;100.00;100472.72;6204086;28;20062;-82
2023/08/07 05:45:08;;;;;;;5.60;3.00;;;;;;;15.03;100.00;100480.75;6203890;28;20061;-80
2023/08/07 05:48:09;;;;;;;4.60;2.60;;;;;;;15.04;100.00;100482.47;6204229;28;20447;-81
2023/08/07 05:51:10;;;;;;;3.55;2.38;;;;;;;15.12;100.00;100485.34;6203800;28;20351;-81
2023/08/07 05:54:12;;;;;;;7.03;2.47;;;;;;;15.21;100.00;100482.00;6203567;28;20057;-79
2023/08/07 05:57:14;;;;;;;3.30;2.17;;;;;;;15.20;100.00;100477.66;6203866;28;20057;-80
2023/08/07 06:00:17;;;;;;;4.25;2.85;;;;;;;15.14;100.00;100480.78;6203959;28;20355;-80
2023/08/07 06:03:19;;;;;;;4.68;2.97;;;;;;;15.22;100.00;100479.25;6221722;28;20164;-81
2023/08/07 06:06:21;;;;;;;4.85;2.88;;;;;;;15.25;100.00;100486.09;6208500;28;20046;-81
2023/08/07 06:09:22;;;;;;;3.78;2.40;;;;;;;15.22;100.00;100494.28;6205649;28;20427;-80
2023/08/07 06:12:25;;;;;;;3.17;2.28;;;;;;;15.17;100.00;100489.34;6212731;28;20049;-74
2023/08/07 06:15:27;;;;;;;3.72;2.30;;;;;;;15.14;100.00;100483.44;6210830;28;20057;-74
2023/08/07 06:18:29;;;;;;;5.10;2.15;;;;;;;15.21;100.00;100487.28;6203050;28;20050;-74
2023/08/07 06:21:31;;;;;;;4.72;2.40;;;;;;;15.26;100.00;100492.22;6202932;28;20042;-74
2023/08/07 06:24:32;;;;;;;5.53;2.53;;;;;;;15.23;100.00;100485.38;6202769;28;20068;-74
2023/08/07 06:27:35;;;;;;;5.13;2.10;;;;;;;15.32;100.00;100491.78;6202696;28;20083;-74
2023/08/07 06:30:36;;;;;;;7.40;2.45;;;;;;;15.36;100.00;100486.13;6202955;28;20047;-75
2023/08/07 06:33:38;;;;;;;3.92;2.60;;;;;;;15.34;100.00;100495.13;6202361;28;20053;-74
2023/08/07 06:36:40;;;;;;;4.28;2.22;;;;;;;15.33;100.00;100482.88;6219651;28;20046;-74
2023/08/07 06:39:41;;;;;;;2.95;1.92;;;;;;;15.42;100.00;100487.44;6213931;28;20042;-74
2023/08/07 06:42:44;;;;;;;3.60;2.20;;;;;;;15.46;100.00;100489.72;6213280;28;20073;-74
2023/08/07 06:45:47;;;;;;;2.88;1.88;;;;;;;15.51;100.00;100499.13;6216907;28;20042;-75
2023/08/07 06:48:49;;;;;;;5.30;2.30;;;;;;;15.51;100.00;100493.84;6211066;28;20038;-80
2023/08/07 06:51:50;;;;;;;5.72;1.88;;;;;;;15.54;100.00;100489.16;6202373;28;20443;-80
2023/08/07 06:54:52;;;;;;;8.35;2.13;;;;;;;15.55;100.00;100497.94;6215365;28;20046;-80
2023/08/07 06:57:55;;;;;;;3.25;1.92;;;;;;;15.51;100.00;100493.84;6238301;22;20054;-72
2023/08/07 07:00:56;;;;;;;2.10;1.50;;;;;;;15.56;100.00;100491.66;6225192;28;20438;-72
2023/08/07 07:03:57;;;;;;;2.33;1.70;;;;;;;15.61;100.00;100492.97;6222055;28;20054;-72
2023/08/07 07:06:59;;;;;;;7.18;2.25;;;;;;;15.64;100.00;100494.59;6213055;28;20057;-72
2023/08/07 07:10:01;;;;;;;1.80;1.50;;;;;;;15.69;100.00;100492.41;6213249;28;20047;-73
2023/08/07 07:13:03;;;;;;;4.28;1.55;;;;;;;15.68;100.00;100504.81;6207416;28;20050;-72
2023/08/07 07:16:05;;;;;;;5.28;1.30;;;;;;;15.69;100.00;100506.50;6226201;28;20054;-73
2023/08/07 07:19:08;;;;;;;7.70;2.65;;;;;;;15.72;100.00;100503.63;6226128;28;20140;-72
2023/08/07 07:22:09;;;;;;;2.67;1.30;;;;;;;15.79;100.00;100506.63;6226275;28;20045;-73
2023/08/07 07:25:11;;;;;;;2.03;1.20;;;;;;;15.95;100.00;100508.91;6225861;28;20049;-72
2023/08/07 07:28:14;;;;;;;1.60;1.50;;;;;;;15.98;100.00;100506.00;6226194;28;20046;-73
2023/08/07 07:31:15;;;;;;;1.88;1.20;;;;;;;16.02;100.00;100518.03;6213197;28;20410;-74
2023/08/07 07:34:16;;;;;;;2.97;1.50;;;;;;;16.11;100.00;100517.31;6216768;28;20046;-73
2023/08/07 07:37:18;;;;;;;4.30;1.48;;;;;;;16.12;100.00;100515.50;6217328;28;20049;-72
2023/08/07 07:40:19;;;;;;;3.83;1.35;;;;;;;16.14;100.00;100519.72;6210724;28;20050;-72
2023/08/07 07:43:22;;;;;;;1.77;1.30;;;;;;;16.17;100.00;100522.13;6220301;28;20590;-72
2023/08/07 07:46:24;;;;;;;2.03;1.25;;;;;;;16.15;100.00;100515.25;6209562;28;20046;-72
2023/08/07 07:49:26;;;;;;;4.63;1.98;;;;;;;16.22;100.00;100527.06;6211745;28;20056;-74
2023/08/07 07:52:28;;;;;;;3.28;1.20;;;;;;;16.26;100.00;100531.16;6217293;28;20057;-74
2023/08/07 07:55:30;;;;;;;2.45;1.17;;;;;;;16.26;100.00;100527.66;6217213;28;20354;-75
2023/08/07 07:58:49;;;;;;;4.13;1.33;;;;;;;16.32;100.00;100543.09;6227472;28;20155;-73
2023/08/07 08:01:51;;;;;;;1.50;1.40;;;;;;;16.30;100.00;100542.34;6225446;28;20362;-72
2023/08/07 08:04:53;;;;;;;3.22;1.30;;;;;;;16.12;100.00;100549.97;6223001;28;20046;-74
2023/08/07 08:08:03;;;;;;;5.13;1.40;;;;;;;15.92;100.00;100570.94;6216786;28;20129;-72
2023/08/07 08:11:04;;;;;;;7.80;1.00;;;;;;;15.74;100.00;100572.38;6216166;28;20374;-72
2023/08/07 08:14:07;;;;;;;3.90;1.30;;;;;;;15.65;100.00;100567.78;6217868;28;20049;-74
2023/08/07 08:17:09;;;;;;;4.50;1.30;;;;;;;15.41;100.00;100566.03;6223149;28;20064;-73
2023/08/07 08:20:11;;;;;;;2.17;1.08;;;;;;;15.36;100.00;100568.22;6223000;28;20347;-75
2023/08/07 08:23:12;;;;;;;3.50;1.42;;;;;;;15.37;100.00;100564.59;6221841;28;20318;-72
2023/08/07 08:26:13;;;;;;;4.68;1.80;;;;;;;15.46;100.00;100557.75;6214835;28;20050;-74
2023/08/07 08:29:17;;;;;;;3.03;1.48;;;;;;;15.54;100.00;100559.81;6221858;28;20049;-73
2023/08/07 08:32:18;;;;;;;4.18;1.90;;;;;;;15.65;100.00;100563.34;6221597;28;20049;-72
2023/08/07 08:35:19;;;;;;;5.43;1.40;;;;;;;15.73;100.00;100568.91;6229752;28;20050;-72
2023/08/07 08:38:21;;;;;;;4.85;1.67;;;;;;;15.82;100.00;100575.28;6229851;28;20050;-74
2023/08/07 08:41:23;;;;;;;10.95;1.88;;;;;;;15.93;100.00;100577.94;6229728;28;20050;-74
2023/08/07 08:44:30;;;;;;;7.25;2.83;;;;;;;15.98;100.00;100583.69;6229391;28;20358;-74
2023/08/07 08:47:34;;;;;;;4.75;1.90;;;;;;;16.21;100.00;100573.09;6229480;28;20053;-75
2023/08/07 08:50:36;;;;;;;6.40;1.38;;;;;;;16.33;100.00;100580.06;6229507;28;20052;-75
2023/08/07 08:53:38;;;;;;;3.70;1.52;;;;;;;16.40;100.00;100581.28;6229228;28;20113;-75
2023/08/07 08:56:40;;;;;;;6.13;1.17;;;;;;;16.43;100.00;100591.63;6229337;28;20049;-73
2023/08/07 08:59:43;;;;;;;4.80;1.63;;;;;;;16.45;100.00;100581.75;6226898;28;20053;-71
2023/08/07 09:02:46;;;;;;;9.57;1.50;;;;;;;16.53;100.00;100583.75;6223250;28;20435;-71
2023/08/07 09:05:48;;;;;;;5.82;1.48;;;;;;;16.56;100.00;100586.19;6219418;28;20046;-73
2023/08/07 09:08:50;;;;;;;4.80;1.95;;;;;;;16.47;100.00;100590.41;6222792;28;20101;-72
2023/08/07 09:11:52;;;;;;;6.65;1.08;;;;;;;16.47;100.00;100597.53;6226608;28;20053;-71
2023/08/07 09:14:57;;;;;;;4.32;1.30;;;;;;;16.43;100.00;100596.94;6220235;28;20049;-71
2023/08/07 09:18:00;;;;;;;6.45;1.33;;;;;;;16.42;100.00;100589.94;6228936;28;20140;-74
2023/08/07 09:21:03;;;;;;;3.20;1.35;;;;;;;16.46;100.00;100598.50;6228926;28;20046;-71
2023/08/07 09:24:05;;;;;;;6.63;1.73;;;;;;;16.41;100.00;100611.28;6228514;28;20065;-72
2023/08/07 09:27:08;;;;;;;3.25;1.40;;;;;;;16.41;100.00;100603.34;6228811;28;20140;-72
2023/08/07 09:30:11;;;;;;;7.13;1.48;;;;;;;16.47;100.00;100602.84;6211516;28;20061;-70
2023/08/07 09:33:13;;;;;;;3.40;1.40;;;;;;;16.49;100.00;100615.03;6215869;28;20049;-71
2023/08/07 09:36:15;;;;;;;6.65;1.48;;;;;;;16.56;100.00;100618.00;6219951;28;20442;-72
2023/08/07 09:39:16;;;;;;;6.50;1.73;;;;;;;16.59;100.00;100616.94;6222258;28;20093;-72
2023/08/07 09:42:18;;;;;;;4.60;1.60;;;;;;;16.57;100.00;100624.16;6228319;28;20058;-73
2023/08/07 09:45:22;;;;;;;4.88;1.27;;;;;;;16.53;100.00;100622.72;6228148;28;20473;-74
2023/08/07 09:48:24;;;;;;;6.90;1.15;;;;;;;16.42;100.00;100629.72;6228308;28;20127;-72
2023/08/07 09:51:26;;;;;;;2.20;1.20;;;;;;;16.12;100.00;100637.44;6224455;28;20074;-71
2023/08/07 09:54:28;;;;;;;3.42;1.00;;;;;;;15.85;100.00;100651.91;6207213;28;20140;-72
2023/08/07 09:57:30;;;;;;;1.80;1.20;;;;;;;15.61;100.00;100645.78;6203587;28;20467;-75
2023/08/07 10:00:36;;;;;;;3.10;1.52;;;;;;;15.53;100.00;100640.22;6203510;28;20042;-76
2023/08/07 10:03:38;;;;;;;6.53;1.98;;;;;;;15.71;100.00;100645.03;6217620;28;20093;-77
2023/08/07 10:06:39;;;;;;;4.97;1.20;;;;;;;15.80;100.00;100639.94;6227536;28;20064;-75
2023/08/07 10:09:41;;;;;;;4.47;1.50;;;;;;;15.86;100.00;100644.78;6216738;28;20042;-75
2023/08/07 10:12:45;;;;;;;4.38;1.20;;;;;;;15.88;100.00;100659.59;6219349;28;20045;-75
2023/08/07 10:15:49;;;;;;;4.20;1.13;;;;;;;15.98;100.00;100642.03;6221031;28;20053;-76
2023/08/07 10:18:50;;;;;;;2.97;1.02;;;;;;;16.04;100.00;100643.38;6221295;28;20054;-77
2023/08/07 10:21:53;;;;;;;4.55;1.33;;;;;;;16.03;100.00;100657.56;6222057;28;20042;-72
2023/08/07 10:24:57;;;;;;;4.20;1.35;;;;;;;16.03;100.00;100652.25;6211959;28;20308;-72
2023/08/07 10:28:01;;;;;;;3.78;1.17;;;;;;;16.11;100.00;100649.88;6202603;28;20428;-72
2023/08/07 10:31:04;;;;;;;4.38;1.70;;;;;;;16.18;100.00;100655.53;6210609;28;20082;-75
2023/08/07 10:34:06;;;;;;;7.95;1.92;;;;;;;16.33;100.00;100675.56;6202525;28;20362;-75
2023/08/07 10:37:07;;;;;;;7.22;1.60;;;;;;;16.27;100.00;100654.81;6202534;28;20443;-76
2023/08/07 10:40:10;;;;;;;5.10;1.33;;;;;;;16.33;100.00;100659.63;6216893;28;20045;-74
2023/08/07 10:43:14;;;;;;;6.63;1.98;;;;;;;16.50;100.00;100655.66;6226893;28;20041;-73
2023/08/07 10:46:20;;;;;;;1.90;0.82;;;;;;;16.65;100.00;100650.94;6226824;28;20053;-73
2023/08/07 10:49:33;;;;;;;3.25;1.30;;;;;;;16.68;100.00;100658.66;6226843;28;20184;-73
2023/08/07 10:52:34;;;;;;;4.32;1.33;;;;;;;16.67;100.00;100652.50;6218004;28;20077;-73
2023/08/07 10:55:57;;;;;;;10.65;1.38;;;;;;;16.63;100.00;100697.97;6218123;28;20437;-74
2023/08/07 10:58:58;;;;;;;4.03;1.17;;;;;;;16.26;100.00;100687.63;6203115;28;20058;-74
2023/08/07 11:02:01;;;;;;;11.75;1.15;;;;;;;15.96;100.00;100693.47;6202177;28;20053;-75
2023/08/07 11:05:04;;;;;;;1.38;0.63;;;;;;;15.85;100.00;100696.09;6202087;28;20050;-75
2023/08/07 11:08:06;;;;;;;2.33;0.65;;;;;;;15.92;100.00;100715.88;6222877;28;20057;-73
2023/08/07 11:11:07;;;;;;;1.80;0.75;;;;;;;15.84;100.00;100691.75;6216258;28;20050;-72
2023/08/07 11:14:10;;;;;;;1.25;0.80;;;;;;;15.99;100.00;100693.25;6217784;28;20057;-74
2023/08/07 11:17:13;;;;;;;1.88;0.80;;;;;;;16.12;100.00;100696.63;6207141;28;20054;-74
2023/08/07 11:20:15;;;;;;;1.95;0.93;;;;;;;16.32;100.00;100704.84;6214660;28;20053;-77
2023/08/07 11:23:17;;;;;;;8.70;0.98;;;;;;;16.59;100.00;100704.50;6226211;28;20050;-78
2023/08/07 11:26:21;;;;;;;4.65;0.90;;;;;;;16.88;100.00;100712.81;6225966;28;20046;-73
2023/08/07 11:29:24;;;;;;;6.00;1.30;;;;;;;16.99;100.00;100713.66;6226141;28;20397;-76
2023/08/07 11:32:28;;;;;;;3.55;0.90;;;;;;;16.60;100.00;100760.09;6222827;28;20052;-72
2023/08/07 11:35:29;;;;;;;5.38;1.08;;;;;;;16.33;100.00;100739.19;6220694;28;20050;-75
2023/08/07 11:38:33;;;;;;;1.92;0.60;;;;;;;16.05;100.00;100750.25;6225110;28;20438;-78
2023/08/07 11:41:34;;;;;;;3.60;0.88;;;;;;;16.15;100.00;100745.94;6205845;28;20351;-82
2023/08/07 11:44:36;;;;;;;2.88;0.75;;;;;;;16.29;100.00;100744.88;6219763;28;20046;-81
2023/08/07 11:47:39;;;;;;;4.40;1.13;;;;;;;16.37;100.00;100730.03;6217206;28;20065;-77
2023/08/07 11:50:41;;;;;;;2.47;0.90;;;;;;;16.60;100.00;100725.59;6224326;28;20234;-79
2023/08/07 11:53:43;;;;;;;1.33;0.70;;;;;;;16.79;100.00;100726.81;6210907;28;20049;-76
2023/08/07 11:56:44;;;;;;;2.30;0.85;;;;;;;16.78;100.00;100725.97;6204571;28;20054;-79
2023/08/07 11:59:50;;;;;;;4.68;1.00;;;;;;;16.81;100.00;100736.34;6201287;28;20057;-76
2023/08/07 12:02:53;;;;;;;3.35;0.95;;;;;;;16.76;100.00;100727.91;6201366;28;20458;-76
2023/08/07 12:05:57;;;;;;;4.10;1.00;;;;;;;16.79;100.00;100717.03;6216099;28;20053;-72
2023/08/07 12:08:58;;;;;;;3.45;1.20;;;;;;;16.89;100.00;100722.44;6211249;28;20181;-74
2023/08/07 12:12:00;;;;;;;8.30;1.67;;;;;;;17.03;100.00;100721.34;6222330;28;20057;-72
2023/08/07 12:15:01;;;;;;;3.72;1.15;;;;;;;16.98;100.00;100724.38;6222905;28;20057;-74
2023/08/07 12:18:04;;;;;;;1.58;0.98;;;;;;;17.19;100.00;100727.09;6217309;28;20054;-74
2023/08/07 12:21:08;;;;;;;2.67;0.98;;;;;;;17.25;100.00;100726.59;6217024;28;20354;-72
2023/08/07 12:24:09;;;;;;;4.63;0.98;;;;;;;17.17;100.00;100735.22;6220064;28;20350;-74
2023/08/07 12:27:11;;;;;;;5.53;0.93;;;;;;;17.20;100.00;100742.06;6214293;28;20054;-72
2023/08/07 12:30:14;;;;;;;5.32;1.13;;;;;;;17.07;100.00;100739.56;6201303;28;20043;-76
2023/08/07 12:33:17;;;;;;;4.05;0.93;;;;;;;17.09;100.00;100776.63;6201143;28;20054;-77
2023/08/07 12:36:18;;;;;;;1.48;0.98;;;;;;;17.02;100.00;100775.41;6210707;28;20366;-77
2023/08/07 12:39:20;;;;;;;4.55;0.82;;;;;;;16.76;100.00;100761.56;6212773;28;20057;-74
2023/08/07 12:42:22;;;;;;;2.00;1.20;;;;;;;16.72;100.00;100753.00;6207031;28;20073;-77
2023/08/07 12:45:23;;;;;;;4.90;1.30;;;;;;;16.77;100.00;100761.44;6209243;28;20061;-77
2023/08/07 12:48:28;;;;;;;3.92;1.10;;;;;;;16.77;100.00;100760.59;6211258;28;20053;-79
2023/08/07 12:51:29;;;;;;;8.00;1.38;;;;;;;16.64;100.00;100772.16;6210979;28;20095;-72
2023/08/07 12:54:31;;;;;;;6.55;1.40;;;;;;;16.58;100.00;100787.69;6207800;28;20061;-74
2023/08/07 12:57:32;;;;;;;4.95;1.02;;;;;;;16.71;100.00;100780.47;6228110;28;20461;-74
2023/08/07 13:00:33;;;;;;;3.45;0.90;;;;;;;16.78;100.00;100783.53;6228075;28;20049;-74
2023/08/07 13:03:36;;;;;;;7.50;1.70;;;;;;;16.93;100.00;100787.59;6227598;28;20054;-72
2023/08/07 13:06:38;;;;;;;3.10;1.20;;;;;;;17.11;100.00;100801.22;6222248;28;20638;-72
2023/08/07 13:09:39;;;;;;;2.83;0.90;;;;;;;17.34;100.00;100796.72;6215613;28;20050;-72
2023/08/07 13:12:41;;;;;;;2.97;1.00;;;;;;;17.37;100.00;100791.19;6223229;28;20053;-71
2023/08/07 13:15:43;;;;;;;5.20;0.90;;;;;;;17.50;100.00;100791.88;6228467;28;20446;-71
2023/08/07 13:18:46;;;;;;;3.15;1.23;;;;;;;17.63;100.00;100786.41;6223468;28;20050;-72
2023/08/07 13:21:47;;;;;;;6.45;1.40;;;;;;;17.47;100.00;100790.28;6227753;28;20053;-71
2023/08/07 13:24:48;;;;;;;2.42;1.20;;;;;;;17.22;100.00;100787.97;6206795;28;20336;-70
2023/08/07 13:27:50;;;;;;;2.38;0.70;;;;;;;17.14;100.00;100809.81;6204277;28;20054;-72
2023/08/07 13:30:53;;;;;;;1.05;0.82;;;;;;;17.10;100.00;100807.50;6217564;28;20438;-72
2023/08/07 13:33:56;;;;;;;1.90;0.85;;;;;;;17.30;100.00;100812.06;6228229;28;20131;-72
2023/08/07 13:36:59;;;;;;;2.25;0.90;;;;;;;17.61;100.00;100820.22;6228544;28;20426;-72
2023/08/07 13:40:00;;;;;;;2.47;0.77;;;;;;;17.60;100.00;100818.53;6227823;28;20085;-72
2023/08/07 13:43:07;;;;;;;7.85;2.00;;;;;;;17.44;100.00;100821.56;6213292;28;20054;-72
2023/08/07 13:46:08;;;;;;;7.28;1.30;;;;;;;17.47;100.00;100846.09;6203774;28;20056;-71
2023/08/07 13:49:11;;;;;;;3.00;1.25;;;;;;;17.48;100.00;100838.97;6203966;28;20336;-72
2023/08/07 13:52:12;;;;;;;1.92;0.80;;;;;;;17.78;100.00;100805.56;6216642;28;20069;-72
2023/08/07 13:55:14;;;;;;;4.30;1.83;;;;;;;18.25;100.00;100812.22;6220482;28;20053;-71
2023/08/07 13:58:16;;;;;;;2.45;0.90;;;;;;;18.11;100.00;100821.38;6227808;28;20050;-71